Time;durP1;ratioP1;P1;durP2;ratioP2;P2;SDS_P1;SDS_P2;PMS_P1;PMS_P2;Temp;Humidity;BMP_temperature;BMP_pressure;BME280_temperature;BME280_humidity;BME280_pressure;Samples;Min_cycle;Max_cycle;Signal;HPM_P1;HPM_P2
2021/05/10 00:01:55;;;;;;;3.30;3.10;;;;;;;;;;5096881;28;20024;-71
2021/05/10 00:04:21;;;;;;;3.13;2.83;;;;;;;;;;5096223;28;20012;-71
2021/05/10 00:06:46;;;;;;;3.20;3.00;;;;;;;;;;5094999;28;20028;-71
2021/05/10 00:09:11;;;;;;;4.60;3.20;;;;;;;;;;5095184;28;20028;-71
2021/05/10 00:11:37;;;;;;;2.97;2.67;;;;;;;;;;5096249;28;20032;-72
2021/05/10 00:14:03;;;;;;;2.83;2.63;;;;;;;;;;5096395;28;20020;-72
2021/05/10 00:16:30;;;;;;;3.45;3.15;;;;;;;;;;5096170;28;20421;-72
2021/05/10 00:18:55;;;;;;;3.80;3.40;;;;;;;;;;5094892;28;20048;-71
2021/05/10 00:21:21;;;;;;;5.30;3.63;;;;;;;;;;5094843;28;20058;-71
2021/05/10 00:23:46;;;;;;;5.50;4.93;;;;;;;;;;5095783;28;20027;-71
2021/05/10 00:26:12;;;;;;;4.03;3.72;;;;;;;;;;5095884;28;20466;-71
2021/05/10 00:28:37;;;;;;;6.70;4.80;;;;;;;;;;5096009;28;20074;-71
2021/05/10 00:31:03;;;;;;;6.15;4.38;;;;;;;;;;5095857;28;20114;-72
2021/05/10 00:33:28;;;;;;;4.03;3.63;;;;;;;;;;5095870;28;20107;-71
2021/05/10 00:35:54;;;;;;;3.15;2.75;;;;;;;;;;5095653;28;20028;-73
2021/05/10 00:38:19;;;;;;;3.30;3.05;;;;;;;;;;5095884;28;20122;-72
2021/05/10 00:40:45;;;;;;;5.50;3.50;;;;;;;;;;5095726;28;20466;-72
2021/05/10 00:43:10;;;;;;;4.22;3.70;;;;;;;;;;5094095;28;20012;-72
2021/05/10 00:45:36;;;;;;;3.53;3.20;;;;;;;;;;5094014;28;20505;-72
2021/05/10 00:48:03;;;;;;;3.70;3.40;;;;;;;;;;5095655;28;20020;-73
2021/05/10 00:50:28;;;;;;;5.28;3.72;;;;;;;;;;5095604;28;20024;-72
2021/05/10 00:52:54;;;;;;;4.15;3.22;;;;;;;;;;5095467;28;20420;-72
2021/05/10 00:55:20;;;;;;;4.57;3.20;;;;;;;;;;5094198;28;20035;-72
2021/05/10 00:58:05;;;;;;;5.68;3.22;;;;;;;;;;5095172;28;20055;-73
2021/05/10 01:00:32;;;;;;;3.50;2.60;;;;;;;;;;5093848;28;20114;-73
2021/05/10 01:02:58;;;;;;;2.50;2.30;;;;;;;;;;5077224;28;20031;-72
2021/05/10 01:05:23;;;;;;;2.85;2.38;;;;;;;;;;5094204;28;20020;-73
2021/05/10 01:07:49;;;;;;;3.25;2.30;;;;;;;;;;5093889;28;20362;-73
2021/05/10 01:10:16;;;;;;;2.67;2.47;;;;;;;;;;5095272;28;20039;-72
2021/05/10 01:12:41;;;;;;;3.45;2.70;;;;;;;;;;5093625;28;20044;-71
2021/05/10 01:15:08;;;;;;;4.72;3.05;;;;;;;;;;5094985;28;20482;-70
2021/05/10 01:17:34;;;;;;;3.05;2.45;;;;;;;;;;5095089;28;20019;-70
2021/05/10 01:20:00;;;;;;;3.45;3.15;;;;;;;;;;5093713;28;20027;-70
2021/05/10 01:22:32;;;;;;;2.90;2.70;;;;;;;;;;5094866;28;20037;-70
2021/05/10 01:24:57;;;;;;;3.35;2.95;;;;;;;;;;5094924;28;20028;-70
2021/05/10 01:27:23;;;;;;;2.88;2.67;;;;;;;;;;5094783;28;20422;-70
2021/05/10 01:29:48;;;;;;;3.28;2.90;;;;;;;;;;5094818;28;20401;-70
2021/05/10 01:32:14;;;;;;;3.42;3.10;;;;;;;;;;5094482;28;20074;-71
2021/05/10 01:34:39;;;;;;;3.22;2.92;;;;;;;;;;5094790;28;20036;-71
2021/05/10 01:37:05;;;;;;;2.75;2.53;;;;;;;;;;5094837;28;20016;-71
2021/05/10 01:39:30;;;;;;;2.40;2.20;;;;;;;;;;5093095;28;20032;-72
2021/05/10 01:41:56;;;;;;;3.00;2.70;;;;;;;;;;5094363;28;20020;-71
2021/05/10 01:44:21;;;;;;;2.70;2.50;;;;;;;;;;5094183;28;20105;-71
2021/05/10 01:46:47;;;;;;;3.30;2.53;;;;;;;;;;5094531;28;20020;-72
2021/05/10 01:49:12;;;;;;;2.50;2.30;;;;;;;;;;5094418;28;20024;-71
2021/05/10 01:51:38;;;;;;;2.45;2.25;;;;;;;;;;5093104;28;20051;-71
2021/05/10 01:54:04;;;;;;;2.90;2.40;;;;;;;;;;5094325;28;20424;-72
2021/05/10 01:56:30;;;;;;;2.92;2.30;;;;;;;;;;5094313;28;20024;-72
2021/05/10 01:58:55;;;;;;;2.88;2.10;;;;;;;;;;5093462;28;20020;-71
2021/05/10 02:01:21;;;;;;;2.35;2.15;;;;;;;;;;5092920;28;20099;-71
2021/05/10 02:03:47;;;;;;;2.70;2.20;;;;;;;;;;5094217;28;20470;-71
2021/05/10 02:06:12;;;;;;;2.50;2.08;;;;;;;;;;5093084;28;20027;-71
2021/05/10 02:08:38;;;;;;;3.15;2.33;;;;;;;;;;5093920;28;20111;-72
2021/05/10 02:11:03;;;;;;;3.10;1.90;;;;;;;;;;5093958;28;20069;-72
2021/05/10 02:13:28;;;;;;;2.50;2.30;;;;;;;;;;5093973;28;20146;-72
2021/05/10 02:15:55;;;;;;;3.63;2.38;;;;;;;;;;5093942;28;20016;-71
2021/05/10 02:18:22;;;;;;;2.35;2.15;;;;;;;;;;5092631;28;20061;-71
2021/05/10 02:20:49;;;;;;;2.60;2.40;;;;;;;;;;5093946;28;20016;-71
2021/05/10 02:23:15;;;;;;;2.17;2.05;;;;;;;;;;5093870;28;20060;-71
2021/05/10 02:25:42;;;;;;;2.63;2.22;;;;;;;;;;5093491;28;20097;-72
2021/05/10 02:28:08;;;;;;;2.45;2.25;;;;;;;;;;5093701;28;20066;-71
2021/05/10 02:30:34;;;;;;;2.78;2.58;;;;;;;;;;5093665;28;20049;-71
2021/05/10 02:33:00;;;;;;;3.67;2.40;;;;;;;;;;5092342;28;20046;-72
2021/05/10 02:35:26;;;;;;;4.57;2.30;;;;;;;;;;5093844;28;20020;-71
2021/05/10 02:37:52;;;;;;;2.65;2.28;;;;;;;;;;5093567;28;20024;-71
2021/05/10 02:40:18;;;;;;;5.40;2.58;;;;;;;;;;5093524;28;20016;-72
2021/05/10 02:42:44;;;;;;;3.33;2.40;;;;;;;;;;5093400;28;20020;-71
2021/05/10 02:45:11;;;;;;;2.65;2.45;;;;;;;;;;5092188;28;20051;-72
2021/05/10 02:47:37;;;;;;;7.38;2.28;;;;;;;;;;5093546;28;20052;-72
2021/05/10 02:50:06;;;;;;;3.47;2.38;;;;;;;;;;5093404;28;20118;-73
2021/05/10 02:52:31;;;;;;;2.53;2.15;;;;;;;;;;5093663;28;20024;-72
2021/05/10 02:54:57;;;;;;;5.15;2.40;;;;;;;;;;5093735;28;20374;-72
2021/05/10 02:57:22;;;;;;;2.35;2.20;;;;;;;;;;5075673;28;20031;-72
2021/05/10 02:59:48;;;;;;;2.45;2.20;;;;;;;;;;5092380;28;20066;-72
2021/05/10 03:02:13;;;;;;;2.63;2.05;;;;;;;;;;5093516;28;20028;-73
2021/05/10 03:04:39;;;;;;;3.47;2.25;;;;;;;;;;5093384;28;20107;-73
2021/05/10 03:07:04;;;;;;;2.45;2.10;;;;;;;;;;5093588;28;20036;-73
2021/05/10 03:09:32;;;;;;;2.72;2.50;;;;;;;;;;5094960;28;20039;-73
2021/05/10 03:11:58;;;;;;;3.35;2.70;;;;;;;;;;5097445;28;20081;-72
2021/05/10 03:14:23;;;;;;;3.42;2.20;;;;;;;;;;5097457;28;20020;-72
2021/05/10 03:16:49;;;;;;;2.42;2.05;;;;;;;;;;5096293;28;20035;-72
2021/05/10 03:19:16;;;;;;;3.75;2.17;;;;;;;;;;5096870;28;20027;-71
2021/05/10 03:21:42;;;;;;;2.38;2.05;;;;;;;;;;5097194;28;20489;-72
2021/05/10 03:24:08;;;;;;;2.30;2.05;;;;;;;;;;5097296;28;20028;-72
2021/05/10 03:26:34;;;;;;;9.13;2.53;;;;;;;;;;5097098;28;20454;-71
2021/05/10 03:29:00;;;;;;;2.53;2.33;;;;;;;;;;5095930;28;20073;-71
2021/05/10 03:31:25;;;;;;;4.43;2.55;;;;;;;;;;5097244;28;20023;-72
2021/05/10 03:33:50;;;;;;;4.28;2.30;;;;;;;;;;5096914;28;20473;-72
2021/05/10 03:36:16;;;;;;;5.93;2.20;;;;;;;;;;5096859;28;20028;-71
2021/05/10 03:38:41;;;;;;;3.08;2.42;;;;;;;;;;5096924;28;20034;-71
2021/05/10 03:41:07;;;;;;;2.63;2.30;;;;;;;;;;5095536;28;20020;-72
2021/05/10 03:43:32;;;;;;;4.15;2.28;;;;;;;;;;5096267;28;20595;-71
2021/05/10 03:45:58;;;;;;;2.30;2.10;;;;;;;;;;5097058;28;20032;-71
2021/05/10 03:48:23;;;;;;;6.03;2.53;;;;;;;;;;5078501;28;20059;-71
2021/05/10 03:50:49;;;;;;;2.75;2.00;;;;;;;;;;5096700;28;20078;-70
2021/05/10 03:53:14;;;;;;;2.38;2.03;;;;;;;;;;5096666;28;20024;-70
2021/05/10 03:55:40;;;;;;;3.63;2.35;;;;;;;;;;5096854;28;20024;-70
2021/05/10 03:58:05;;;;;;;2.38;2.15;;;;;;;;;;5078566;28;20016;-70
2021/05/10 04:00:31;;;;;;;2.45;2.13;;;;;;;;;;5096309;28;20073;-71
2021/05/10 04:02:59;;;;;;;2.60;2.00;;;;;;;;;;5096651;28;20085;-72
2021/05/10 04:16:04;;;;;;;2.20;1.92;;;;;;;;;;5096475;28;20116;-71
2021/05/10 04:18:29;;;;;;;2.22;2.03;;;;;;;;;;5096102;28;20442;-71
2021/05/10 04:20:55;;;;;;;2.22;1.65;;;;;;;;;;5095321;28;20058;-72
2021/05/10 04:23:20;;;;;;;1.67;1.58;;;;;;;;;;5096003;28;20021;-72
2021/05/10 04:25:47;;;;;;;2.70;1.75;;;;;;;;;;5094758;28;20059;-72
2021/05/10 04:28:13;;;;;;;1.80;1.70;;;;;;;;;;5096046;28;20515;-72
2021/05/10 04:30:39;;;;;;;2.20;2.03;;;;;;;;;;5096028;28;20028;-72
2021/05/10 04:33:04;;;;;;;2.08;1.83;;;;;;;;;;5095820;28;20069;-72
2021/05/10 04:35:32;;;;;;;3.83;2.00;;;;;;;;;;5095683;28;20115;-73
2021/05/10 04:37:57;;;;;;;3.20;1.80;;;;;;;;;;5095904;28;20568;-73
2021/05/10 04:40:23;;;;;;;1.77;1.67;;;;;;;;;;5094516;28;20099;-74
2021/05/10 04:42:48;;;;;;;2.78;1.77;;;;;;;;;;5095786;28;20374;-74
2021/05/10 04:45:14;;;;;;;2.47;1.70;;;;;;;;;;5095585;28;20048;-74
2021/05/10 04:47:41;;;;;;;2.95;1.70;;;;;;;;;;5095675;28;20070;-73
2021/05/10 04:50:09;;;;;;;29.98;3.60;;;;;;;;;;5095129;28;20028;-72
2021/05/10 04:52:34;;;;;;;2.05;1.40;;;;;;;;;;5095490;28;20431;-72
2021/05/10 04:55:00;;;;;;;1.88;1.40;;;;;;;;;;5093893;28;20059;-71
2021/05/10 04:57:26;;;;;;;3.47;1.77;;;;;;;;;;5095277;28;20012;-71
2021/05/10 04:59:51;;;;;;;3.28;1.80;;;;;;;;;;5095261;28;20106;-72
2021/05/10 05:02:17;;;;;;;2.13;1.70;;;;;;;;;;5095207;28;20047;-71
2021/05/10 05:04:42;;;;;;;3.75;1.67;;;;;;;;;;5094878;28;20136;-71
2021/05/10 05:07:08;;;;;;;1.85;1.27;;;;;;;;;;5095361;28;20028;-70
2021/05/10 05:09:33;;;;;;;3.33;1.60;;;;;;;;;;5095246;28;20119;-70
2021/05/10 05:11:59;;;;;;;3.13;1.90;;;;;;;;;;5093910;28;20355;-70
2021/05/10 05:14:24;;;;;;;2.80;1.60;;;;;;;;;;5094843;28;20028;-70
2021/05/10 05:16:50;;;;;;;4.00;1.73;;;;;;;;;;5094755;28;20027;-70
2021/05/10 05:19:15;;;;;;;1.98;1.88;;;;;;;;;;5094766;28;20028;-70
2021/05/10 05:21:41;;;;;;;2.55;1.60;;;;;;;;;;5095111;28;20020;-70
2021/05/10 05:24:06;;;;;;;2.50;1.75;;;;;;;;;;5093929;28;20028;-71
2021/05/10 05:26:32;;;;;;;2.08;1.38;;;;;;;;;;5076757;28;20103;-70
2021/05/10 05:28:57;;;;;;;3.05;1.70;;;;;;;;;;5094598;28;20462;-70
2021/05/10 05:31:23;;;;;;;1.75;1.60;;;;;;;;;;5094429;28;20466;-71
2021/05/10 05:33:49;;;;;;;4.10;1.65;;;;;;;;;;5092878;28;20039;-71
2021/05/10 05:36:14;;;;;;;3.67;2.10;;;;;;;;;;5075054;28;20008;-71
2021/05/10 05:38:41;;;;;;;1.75;1.65;;;;;;;;;;5093288;28;20085;-71
2021/05/10 05:41:06;;;;;;;3.58;1.70;;;;;;;;;;5093713;28;20020;-71
2021/05/10 05:43:32;;;;;;;3.10;1.83;;;;;;;;;;5093191;28;20032;-71
2021/05/10 05:45:57;;;;;;;2.90;2.70;;;;;;;;;;5093937;28;20393;-71
2021/05/10 05:48:23;;;;;;;1.60;1.50;;;;;;;;;;5093632;28;20028;-72
2021/05/10 05:50:49;;;;;;;1.60;1.30;;;;;;;;;;5092761;28;20016;-71
2021/05/10 05:53:14;;;;;;;3.65;1.48;;;;;;;;;;5093185;28;20078;-71
2021/05/10 05:55:40;;;;;;;2.35;2.25;;;;;;;;;;5094385;28;20070;-71
2021/05/10 05:58:06;;;;;;;1.50;1.40;;;;;;;;;;5092798;28;20043;-71
2021/05/10 06:00:32;;;;;;;6.68;1.58;;;;;;;;;;5093898;28;20020;-71
2021/05/10 06:02:57;;;;;;;1.73;1.13;;;;;;;;;;5093905;28;20036;-71
2021/05/10 06:05:23;;;;;;;1.30;1.20;;;;;;;;;;5094009;28;20471;-71
2021/05/10 06:07:48;;;;;;;2.83;1.10;;;;;;;;;;5093738;28;20105;-72
2021/05/10 06:10:16;;;;;;;2.65;1.40;;;;;;;;;;5093714;28;20531;-71
2021/05/10 06:12:45;;;;;;;4.88;2.65;;;;;;;;;;5092542;28;20023;-71
2021/05/10 06:15:11;;;;;;;2.83;1.40;;;;;;;;;;5092631;28;20474;-71
2021/05/10 06:17:36;;;;;;;1.27;1.17;;;;;;;;;;5092554;28;20028;-67
2021/05/10 06:20:06;;;;;;;1.08;1.00;;;;;;;;;;5093023;28;20016;-67
2021/05/10 06:22:32;;;;;;;2.13;1.13;;;;;;;;;;5093949;28;20031;-67
2021/05/10 06:24:58;;;;;;;3.00;1.20;;;;;;;;;;5093938;28;20024;-67
2021/05/10 06:27:23;;;;;;;0.70;0.70;;;;;;;;;;5093839;28;20110;-67
2021/05/10 06:29:49;;;;;;;3.70;1.00;;;;;;;;;;5093611;28;20106;-69
2021/05/10 06:32:15;;;;;;;2.00;0.90;;;;;;;;;;5093724;28;20028;-69
2021/05/10 06:34:40;;;;;;;0.80;0.80;;;;;;;;;;5093593;28;20095;-69
2021/05/10 06:37:05;;;;;;;1.73;1.33;;;;;;;;;;5092255;28;20031;-69
2021/05/10 06:39:31;;;;;;;0.93;0.82;;;;;;;;;;5093154;28;20016;-69
2021/05/10 06:41:56;;;;;;;1.83;1.00;;;;;;;;;;5093186;28;20492;-69
2021/05/10 06:44:22;;;;;;;1.80;0.98;;;;;;;;;;5092621;28;20490;-69
2021/05/10 06:46:47;;;;;;;1.67;1.10;;;;;;;;;;5091942;28;20032;-69
2021/05/10 06:49:13;;;;;;;1.13;0.68;;;;;;;;;;5091586;28;20231;-69
2021/05/10 06:51:38;;;;;;;0.93;0.90;;;;;;;;;;5092525;28;20386;-69
2021/05/10 06:54:04;;;;;;;2.83;0.93;;;;;;;;;;5092441;28;20048;-69
2021/05/10 06:56:30;;;;;;;2.67;0.90;;;;;;;;;;5092328;28;20028;-69
2021/05/10 06:58:55;;;;;;;1.08;0.80;;;;;;;;;;5092504;28;20115;-69
2021/05/10 07:01:21;;;;;;;0.95;0.77;;;;;;;;;;5092939;28;20491;-69
2021/05/10 07:03:46;;;;;;;0.70;0.70;;;;;;;;;;5091899;28;20036;-69
2021/05/10 07:06:12;;;;;;;1.00;0.90;;;;;;;;;;5093048;28;20039;-69
2021/05/10 07:08:37;;;;;;;0.80;0.80;;;;;;;;;;5093130;28;20383;-69
2021/05/10 07:11:03;;;;;;;1.30;0.70;;;;;;;;;;5093081;28;20052;-69
2021/05/10 07:13:28;;;;;;;0.85;0.60;;;;;;;;;;5092933;28;20092;-69
2021/05/10 07:15:53;;;;;;;2.00;1.20;;;;;;;;;;5092919;28;20063;-69
2021/05/10 07:18:19;;;;;;;0.90;0.80;;;;;;;;;;5091699;28;20027;-69
2021/05/10 07:20:45;;;;;;;0.98;0.77;;;;;;;;;;5091671;28;20024;-69
2021/05/10 07:23:11;;;;;;;0.95;0.70;;;;;;;;;;5091820;28;20031;-69
2021/05/10 07:25:41;;;;;;;0.80;0.80;;;;;;;;;;5092800;28;20482;-69
2021/05/10 07:28:08;;;;;;;0.73;0.70;;;;;;;;;;5092888;28;20023;-69
2021/05/10 07:30:33;;;;;;;1.67;0.60;;;;;;;;;;5092781;28;20039;-69
2021/05/10 07:32:59;;;;;;;1.45;0.95;;;;;;;;;;5091498;28;20020;-69
2021/05/10 07:35:24;;;;;;;1.20;1.10;;;;;;;;;;5092720;28;20085;-69
2021/05/10 07:37:49;;;;;;;2.22;1.00;;;;;;;;;;5091520;28;20019;-69
2021/05/10 07:40:19;;;;;;;1.48;1.02;;;;;;;;;;5091529;28;20028;-69
2021/05/10 07:42:44;;;;;;;0.95;0.95;;;;;;;;;;5092619;28;20028;-69
2021/05/10 07:45:10;;;;;;;1.15;1.08;;;;;;;;;;5092621;28;20047;-69
2021/05/10 07:47:35;;;;;;;1.35;0.50;;;;;;;;;;5091499;28;20036;-69
2021/05/10 07:50:01;;;;;;;0.80;0.80;;;;;;;;;;5092434;28;20458;-69
2021/05/10 07:52:28;;;;;;;1.63;0.80;;;;;;;;;;5092142;28;20100;-69
2021/05/10 07:54:53;;;;;;;1.63;0.90;;;;;;;;;;5092525;28;20074;-69
2021/05/10 07:57:19;;;;;;;0.80;0.80;;;;;;;;;;5095288;28;20062;-69
2021/05/10 07:59:46;;;;;;;1.98;1.17;;;;;;;;;;5095124;28;20016;-70
2021/05/10 08:02:12;;;;;;;1.85;0.80;;;;;;;;;;5096434;28;20024;-70
2021/05/10 08:04:40;;;;;;;0.98;0.90;;;;;;;;;;5096485;28;20378;-70
2021/05/10 08:07:06;;;;;;;7.72;1.40;;;;;;;;;;5094939;28;20474;-70
2021/05/10 08:09:32;;;;;;;1.45;1.20;;;;;;;;;;5096176;28;20107;-70
2021/05/10 08:11:58;;;;;;;1.65;1.00;;;;;;;;;;5096059;28;20055;-70
2021/05/10 08:14:23;;;;;;;2.83;1.10;;;;;;;;;;5096099;28;20051;-70
2021/05/10 08:16:49;;;;;;;2.33;1.05;;;;;;;;;;5094890;28;20120;-70
2021/05/10 08:19:15;;;;;;;2.80;1.10;;;;;;;;;;5094890;28;20035;-70
2021/05/10 08:21:40;;;;;;;2.22;1.30;;;;;;;;;;5096286;28;20024;-70
2021/05/10 08:24:06;;;;;;;0.60;0.60;;;;;;;;;;5094900;28;20424;-70
2021/05/10 08:26:31;;;;;;;1.67;1.00;;;;;;;;;;5096118;28;20470;-70
2021/05/10 08:28:57;;;;;;;1.92;1.13;;;;;;;;;;5095946;28;20389;-70
2021/05/10 08:31:22;;;;;;;1.25;1.15;;;;;;;;;;5095849;28;20482;-70
2021/05/10 08:33:50;;;;;;;0.95;0.88;;;;;;;;;;5095949;28;20024;-70
2021/05/10 08:36:17;;;;;;;1.50;0.85;;;;;;;;;;5096009;28;20436;-70
2021/05/10 08:38:43;;;;;;;1.35;0.98;;;;;;;;;;5094643;28;20020;-71
2021/05/10 08:41:08;;;;;;;1.63;0.73;;;;;;;;;;5096009;28;20111;-71
2021/05/10 08:43:34;;;;;;;1.58;0.98;;;;;;;;;;5099480;28;20481;-71
2021/05/10 08:46:01;;;;;;;2.50;0.70;;;;;;;;;;5096155;28;20024;-71
2021/05/10 08:48:26;;;;;;;1.30;0.77;;;;;;;;;;5095125;28;20462;-71
2021/05/10 08:50:52;;;;;;;2.92;0.77;;;;;;;;;;5095471;28;20063;-71
2021/05/10 08:53:34;;;;;;;1.52;0.90;;;;;;;;;;5095347;28;20020;-71
2021/05/10 08:55:59;;;;;;;0.60;0.60;;;;;;;;;;5094216;28;20056;-71
2021/05/10 08:58:25;;;;;;;1.35;0.80;;;;;;;;;;5094212;28;20043;-70
2021/05/10 09:00:52;;;;;;;2.30;0.75;;;;;;;;;;5094152;28;20374;-67
2021/05/10 09:03:18;;;;;;;2.25;0.90;;;;;;;;;;5095526;28;20579;-70
2021/05/10 09:05:46;;;;;;;0.75;0.75;;;;;;;;;;5095284;28;20052;-70
2021/05/10 09:08:12;;;;;;;0.63;0.63;;;;;;;;;;5094425;28;20016;-70
2021/05/10 09:10:37;;;;;;;1.83;0.68;;;;;;;;;;5094397;28;20428;-70
2021/05/10 09:13:03;;;;;;;1.27;0.70;;;;;;;;;;5095174;28;20039;-70
2021/05/10 09:15:30;;;;;;;1.00;0.90;;;;;;;;;;5094766;28;20107;-70
2021/05/10 09:18:09;;;;;;;2.53;1.00;;;;;;;;;;5094826;28;20008;-70
2021/05/10 09:20:37;;;;;;;1.08;0.98;;;;;;;;;;5093500;28;20478;-70
2021/05/10 09:23:13;;;;;;;0.70;0.70;;;;;;;;;;5095065;28;20024;-70
2021/05/10 09:25:46;;;;;;;0.82;0.50;;;;;;;;;;5094100;28;20031;-70
2021/05/10 09:28:13;;;;;;;0.90;0.80;;;;;;;;;;5093722;28;20430;-70
2021/05/10 09:30:39;;;;;;;2.47;0.90;;;;;;;;;;5094354;28;20024;-73
2021/05/10 09:33:05;;;;;;;2.47;0.98;;;;;;;;;;5092614;28;20031;-73
2021/05/10 09:35:31;;;;;;;2.05;0.75;;;;;;;;;;5094272;28;20107;-73
2021/05/10 09:37:59;;;;;;;1.80;0.90;;;;;;;;;;5094547;28;20024;-73
2021/05/10 09:40:28;;;;;;;1.17;0.80;;;;;;;;;;5094562;28;20013;-73
2021/05/10 09:42:58;;;;;;;1.00;0.73;;;;;;;;;;5094410;28;20051;-73
2021/05/10 09:45:45;;;;;;;0.70;0.70;;;;;;;;;;5094333;28;20331;-74
2021/05/10 09:48:20;;;;;;;4.10;0.90;;;;;;;;;;5094446;28;20119;-74
2021/05/10 09:50:47;;;;;;;1.33;1.08;;;;;;;;;;5094295;28;20032;-74
2021/05/10 09:53:16;;;;;;;2.42;1.00;;;;;;;;;;5094181;28;20047;-74
2021/05/10 09:55:47;;;;;;;1.73;0.98;;;;;;;;;;5094540;28;20077;-75
2021/05/10 09:58:13;;;;;;;1.27;0.80;;;;;;;;;;5094416;28;20031;-74
2021/05/10 10:00:39;;;;;;;1.00;0.90;;;;;;;;;;5094240;28;20446;-74
2021/05/10 10:03:06;;;;;;;1.30;0.98;;;;;;;;;;5092837;28;20032;-74
2021/05/10 10:05:32;;;;;;;1.08;0.98;;;;;;;;;;5094244;28;20046;-75
2021/05/10 10:07:58;;;;;;;2.08;1.00;;;;;;;;;;5094256;28;20051;-74
2021/05/10 10:10:24;;;;;;;1.17;0.70;;;;;;;;;;5094288;28;20458;-74
2021/05/10 10:12:49;;;;;;;1.85;1.23;;;;;;;;;;5094264;28;20032;-74
2021/05/10 10:15:15;;;;;;;1.73;1.10;;;;;;;;;;5093812;28;20032;-74
2021/05/10 10:17:44;;;;;;;1.38;0.75;;;;;;;;;;5093732;28;20101;-74
2021/05/10 10:20:09;;;;;;;2.90;0.85;;;;;;;;;;5093518;28;20130;-74
2021/05/10 10:22:35;;;;;;;1.10;1.00;;;;;;;;;;5094079;28;20066;-74
2021/05/10 10:25:04;;;;;;;1.88;1.20;;;;;;;;;;5093694;28;20017;-74
2021/05/10 10:27:29;;;;;;;2.28;1.30;;;;;;;;;;5092530;28;20474;-74
2021/05/10 10:29:55;;;;;;;1.58;1.05;;;;;;;;;;5093603;28;20024;-74
2021/05/10 10:32:22;;;;;;;2.20;1.30;;;;;;;;;;5093543;28;20032;-74
2021/05/10 10:34:49;;;;;;;1.95;1.27;;;;;;;;;;5093906;28;20232;-74
2021/05/10 10:37:15;;;;;;;1.58;1.23;;;;;;;;;;5093698;28;20028;-74
2021/05/10 10:39:56;;;;;;;0.80;0.80;;;;;;;;;;5093285;28;20020;-74
2021/05/10 10:42:30;;;;;;;1.23;1.15;;;;;;;;;;5092484;28;20025;-74
2021/05/10 10:44:57;;;;;;;2.33;1.10;;;;;;;;;;5092195;28;20097;-75
2021/05/10 10:47:36;;;;;;;2.40;1.23;;;;;;;;;;5092274;28;20024;-74
2021/05/10 10:50:02;;;;;;;1.10;1.00;;;;;;;;;;5091928;28;20036;-74
2021/05/10 10:52:30;;;;;;;1.52;0.90;;;;;;;;;;5093334;28;20031;-71
2021/05/10 10:55:15;;;;;;;1.55;1.13;;;;;;;;;;5091784;28;20056;-71
2021/05/10 10:57:41;;;;;;;0.30;0.30;;;;;;;;;;5093293;28;20111;-71
2021/05/10 11:00:07;;;;;;;1.50;0.65;;;;;;;;;;5093244;28;20044;-72
2021/05/10 11:02:43;;;;;;;1.50;1.00;;;;;;;;;;5093589;28;20161;-72
2021/05/10 11:05:13;;;;;;;4.18;1.10;;;;;;;;;;5093505;28;20036;-71
2021/05/10 11:07:51;;;;;;;1.33;0.80;;;;;;;;;;5093392;28;20032;-73
2021/05/10 11:10:35;;;;;;;1.00;0.80;;;;;;;;;;5093864;28;20032;-73
2021/05/10 11:13:03;;;;;;;3.75;0.88;;;;;;;;;;5092101;28;20462;-73
2021/05/10 11:15:35;;;;;;;1.65;0.60;;;;;;;;;;5093328;28;20020;-74
2021/05/10 11:18:03;;;;;;;2.55;1.20;;;;;;;;;;5091767;28;20043;-74
2021/05/10 11:20:40;;;;;;;3.17;1.25;;;;;;;;;;5093298;28;20103;-74
2021/05/10 11:23:23;;;;;;;1.55;1.17;;;;;;;;;;5093112;28;20028;-75
2021/05/10 11:25:50;;;;;;;2.22;1.00;;;;;;;;;;5092908;28;20028;-75
2021/05/10 11:28:24;;;;;;;1.63;1.23;;;;;;;;;;5093027;28;20016;-66
2021/05/10 11:31:00;;;;;;;1.05;0.90;;;;;;;;;;5095336;28;20039;-70
2021/05/10 11:33:45;;;;;;;0.93;0.75;;;;;;;;;;5097017;28;20032;-68
2021/05/10 11:36:20;;;;;;;2.10;0.95;;;;;;;;;;5097095;28;20028;-75
2021/05/10 11:38:53;;;;;;;3.13;0.77;;;;;;;;;;5097120;28;20035;-70
2021/05/10 11:41:26;;;;;;;1.58;1.00;;;;;;;;;;5097181;28;20032;-74
2021/05/10 11:43:51;;;;;;;1.90;0.98;;;;;;;;;;5095643;28;20406;-73
2021/05/10 11:46:41;;;;;;;2.47;1.02;;;;;;;;;;5096939;28;20028;-67
2021/05/10 11:49:22;;;;;;;0.93;0.90;;;;;;;;;;5088537;28;20482;-68
2021/05/10 11:51:48;;;;;;;1.60;1.00;;;;;;;;;;5096911;28;20036;-72
2021/05/10 11:54:14;;;;;;;1.90;1.00;;;;;;;;;;5096522;28;20024;-71
2021/05/10 11:56:43;;;;;;;1.17;1.08;;;;;;;;;;5096240;28;20031;-71
2021/05/10 12:02:13;;;;;;;1.15;0.90;;;;;;;;;;5063785;28;20145;-70
2021/05/10 12:04:40;;;;;;;1.75;1.30;;;;;;;;;;5096181;28;20032;-70
2021/05/10 12:07:06;;;;;;;2.42;1.42;;;;;;;;;;5096359;28;20020;-69
2021/05/10 12:09:34;;;;;;;2.65;0.80;;;;;;;;;;5096320;28;20056;-70
2021/05/10 12:12:00;;;;;;;1.70;1.60;;;;;;;;;;5096193;28;20043;-67
2021/05/10 12:14:27;;;;;;;1.45;1.20;;;;;;;;;;5095785;28;20458;-67
2021/05/10 12:17:06;;;;;;;2.35;1.30;;;;;;;;;;5096183;28;20043;-67
2021/05/10 12:19:49;;;;;;;2.67;1.33;;;;;;;;;;5096179;28;20066;-67
2021/05/10 12:22:15;;;;;;;2.13;1.27;;;;;;;;;;5096055;28;20027;-66
2021/05/10 12:25:16;;;;;;;2.55;1.30;;;;;;;;;;5094068;28;20016;-66
2021/05/10 12:27:57;;;;;;;2.05;1.15;;;;;;;;;;5017020;28;20029;-66
2021/05/10 12:30:25;;;;;;;1.70;1.15;;;;;;;;;;5088014;28;20379;-66
2021/05/10 12:32:52;;;;;;;1.10;0.88;;;;;;;;;;5094787;28;20063;-66
2021/05/10 12:35:19;;;;;;;2.78;1.20;;;;;;;;;;5094533;28;20117;-66
2021/05/10 12:37:47;;;;;;;1.30;1.20;;;;;;;;;;5094290;28;20489;-66
2021/05/10 12:40:14;;;;;;;1.63;1.00;;;;;;;;;;5095489;28;20035;-66
2021/05/10 12:42:40;;;;;;;0.98;0.98;;;;;;;;;;5095030;28;20013;-66
2021/05/10 12:45:07;;;;;;;2.00;1.00;;;;;;;;;;5093777;28;20052;-66
2021/05/10 12:47:39;;;;;;;2.78;0.95;;;;;;;;;;5094274;28;20031;-66
2021/05/10 12:50:05;;;;;;;1.85;0.90;;;;;;;;;;5094221;28;20124;-66
2021/05/10 12:52:44;;;;;;;1.92;1.08;;;;;;;;;;5093838;28;20106;-66
2021/05/10 12:55:22;;;;;;;1.35;1.00;;;;;;;;;;5094023;28;20111;-66
2021/05/10 12:57:50;;;;;;;2.83;1.48;;;;;;;;;;5095066;28;20032;-66
2021/05/10 13:00:29;;;;;;;1.00;1.00;;;;;;;;;;5094990;28;20012;-66
2021/05/10 13:02:55;;;;;;;1.23;1.15;;;;;;;;;;5095006;28;20024;-66
2021/05/10 13:05:32;;;;;;;1.40;0.98;;;;;;;;;;5094981;28;20073;-66
2021/05/10 13:07:58;;;;;;;0.82;0.82;;;;;;;;;;5095035;28;20043;-66
2021/05/10 13:10:23;;;;;;;0.80;0.80;;;;;;;;;;5094911;28;20020;-66
2021/05/10 13:12:49;;;;;;;1.50;0.95;;;;;;;;;;5093575;28;20036;-66
2021/05/10 13:15:30;;;;;;;0.80;0.70;;;;;;;;;;5094764;28;20107;-66
2021/05/10 13:18:02;;;;;;;3.28;0.85;;;;;;;;;;5094745;28;20050;-66
2021/05/10 13:20:55;;;;;;;1.55;0.85;;;;;;;;;;5094554;28;20028;-66
2021/05/10 13:36:26;;;;;;;0.77;0.77;;;;;;;;;;5094706;28;20016;-66
2021/05/10 13:38:52;;;;;;;0.80;0.80;;;;;;;;;;5093556;28;20485;-67
2021/05/10 13:41:19;;;;;;;0.95;0.70;;;;;;;;;;5094327;28;20118;-67
2021/05/10 13:46:26;;;;;;;0.75;0.75;;;;;;;;;;5094636;28;20047;-66
2021/05/10 13:48:52;;;;;;;0.95;0.95;;;;;;;;;;5094399;28;20062;-66
2021/05/10 13:51:17;;;;;;;1.10;1.00;;;;;;;;;;5094327;28;20116;-67
2021/05/10 13:53:43;;;;;;;0.82;0.82;;;;;;;;;;5093501;28;20441;-67
2021/05/10 13:56:09;;;;;;;1.10;1.10;;;;;;;;;;5094309;28;20024;-66
2021/05/10 13:58:36;;;;;;;1.40;1.30;;;;;;;;;;5093326;28;20461;-66
2021/05/10 14:01:01;;;;;;;1.70;1.60;;;;;;;;;;5094307;28;20393;-66
2021/05/10 14:03:27;;;;;;;5.90;3.03;;;;;;;;;;5094169;28;20099;-66
2021/05/10 14:05:52;;;;;;;6.38;4.00;;;;;;;;;;5094355;28;20028;-66
2021/05/10 14:08:18;;;;;;;10.02;4.70;;;;;;;;;;5093939;28;20052;-67
2021/05/10 14:10:43;;;;;;;11.90;5.97;;;;;;;;;;5094184;28;20123;-66
2021/05/10 14:13:09;;;;;;;8.23;5.60;;;;;;;;;;5094267;28;20035;-66
2021/05/10 14:15:35;;;;;;;7.90;5.57;;;;;;;;;;5093875;28;20032;-66
2021/05/10 14:18:02;;;;;;;7.78;4.32;;;;;;;;;;5094049;28;20386;-66
2021/05/10 14:21:56;;;;;;;5.57;4.20;;;;;;;;;;5093932;28;20042;-66
2021/05/10 14:23:14;;;;;;;5.53;4.55;;;;;;;;;;5094166;28;20028;-66
2021/05/10 14:25:39;;;;;;;9.38;4.57;;;;;;;;;;5093821;28;20027;-66
2021/05/10 14:28:05;;;;;;;7.15;4.43;;;;;;;;;;5094140;28;20028;-66
2021/05/10 14:30:30;;;;;;;5.38;3.67;;;;;;;;;;5093985;28;20463;-66
2021/05/10 14:32:56;;;;;;;7.60;4.65;;;;;;;;;;5092103;28;20055;-65
2021/05/10 14:35:21;;;;;;;4.70;3.25;;;;;;;;;;5093235;28;20111;-65
2021/05/10 14:37:47;;;;;;;1.10;1.10;;;;;;;;;;5093740;28;20385;-65
2021/05/10 14:40:12;;;;;;;6.60;4.00;;;;;;;;;;5093685;28;20027;-65
2021/05/10 14:42:38;;;;;;;3.60;3.30;;;;;;;;;;5093312;28;20031;-65
2021/05/10 14:45:04;;;;;;;4.32;3.33;;;;;;;;;;5093010;28;20036;-65
2021/05/10 14:47:29;;;;;;;6.45;4.10;;;;;;;;;;5093661;28;20028;-64
2021/05/10 14:49:55;;;;;;;5.50;2.88;;;;;;;;;;5093766;28;20131;-65
2021/05/10 14:52:20;;;;;;;5.88;3.20;;;;;;;;;;5093365;28;20082;-65
2021/05/10 14:54:46;;;;;;;5.25;2.60;;;;;;;;;;5093321;28;20034;-65
2021/05/10 14:57:11;;;;;;;5.97;3.00;;;;;;;;;;5093838;28;20030;-65
2021/05/10 14:59:39;;;;;;;4.38;2.83;;;;;;;;;;5093556;28;20397;-65
2021/05/10 15:02:04;;;;;;;4.90;2.80;;;;;;;;;;5092146;28;20031;-65
2021/05/10 15:04:30;;;;;;;4.13;2.88;;;;;;;;;;5093418;28;20016;-63
2021/05/10 15:06:55;;;;;;;3.45;2.38;;;;;;;;;;5097774;28;20078;-63
2021/05/10 15:09:21;;;;;;;1.15;1.00;;;;;;;;;;5097552;28;20458;-63
2021/05/10 15:11:46;;;;;;;2.40;2.17;;;;;;;;;;5097042;28;20123;-63
2021/05/10 15:14:13;;;;;;;2.55;1.92;;;;;;;;;;5096507;28;20035;-63